Time;durP1;ratioP1;P1;durP2;ratioP2;P2;SDS_P1;SDS_P2;PMS_P1;PMS_P2;Temp;Humidity;BMP_temperature;BMP_pressure;BME280_temperature;BME280_humidity;BME280_pressure;Samples;Min_cycle;Max_cycle;Signal;HPM_P1;HPM_P2
2022/10/27 00:03:29;;;;;;;4.47;2.13;;;9.80;99.90;;;;;;21041540;28;20085;-60
2022/10/27 00:13:33;;;;;;;4.53;2.28;;;9.50;99.90;;;;;;21045270;28;20036;-62
2022/10/27 00:23:37;;;;;;;8.65;1.83;;;9.60;99.90;;;;;;21056323;28;20040;-65
2022/10/27 00:33:41;;;;;;;3.97;2.00;;;9.90;99.90;;;;;;21055783;28;20036;-65
2022/10/27 00:43:43;;;;;;;4.95;1.52;;;9.50;99.90;;;;;;21055100;28;20052;-60
2022/10/27 00:53:48;;;;;;;8.65;2.35;;;9.30;99.90;;;;;;21055365;28;20044;-65
2022/10/27 01:03:50;;;;;;;9.50;2.00;;;9.20;99.90;;;;;;21041522;28;20032;-65
2022/10/27 01:13:56;;;;;;;5.43;2.30;;;9.00;99.90;;;;;;21053036;28;20052;-60
2022/10/27 01:24:04;;;;;;;5.70;1.67;;;9.00;99.90;;;;;;21066082;28;20036;-60
2022/10/27 01:34:11;;;;;;;10.20;1.58;;;9.70;99.90;;;;;;21036962;28;20044;-66
2022/10/27 01:44:24;;;;;;;1.95;1.40;;;10.20;99.90;;;;;;21039472;28;20113;-60
2022/10/27 01:54:26;;;;;;;3.28;1.50;;;9.70;99.90;;;;;;21051037;28;20044;-66
2022/10/27 02:04:38;;;;;;;5.90;1.67;;;9.50;99.90;;;;;;21067507;28;20476;-66
2022/10/27 02:14:42;;;;;;;4.68;1.48;;;9.30;99.90;;;;;;21050547;28;20093;-66
2022/10/27 02:24:45;;;;;;;3.28;1.30;;;9.10;99.90;;;;;;21056444;28;20089;-60
2022/10/27 02:34:49;;;;;;;3.00;1.55;;;9.50;99.90;;;;;;21065059;28;20032;-66
2022/10/27 02:44:52;;;;;;;3.83;1.50;;;9.90;99.90;;;;;;21065011;28;20044;-65
2022/10/27 02:54:54;;;;;;;3.97;1.20;;;10.30;99.90;;;;;;21063248;28;20044;-60
2022/10/27 03:04:57;;;;;;;3.70;1.33;;;10.10;99.90;;;;;;21062742;28;20044;-60
2022/10/27 03:14:59;;;;;;;3.08;1.50;;;9.80;99.90;;;;;;21062176;28;20567;-66
2022/10/27 03:25:02;;;;;;;3.65;1.27;;;9.80;99.90;;;;;;21061406;28;20039;-65
2022/10/27 03:35:05;;;;;;;7.18;1.52;;;9.60;99.90;;;;;;21058973;28;20028;-66
2022/10/27 03:45:11;;;;;;;3.80;1.40;;;9.40;99.90;;;;;;21078429;28;20471;-67
2022/10/27 03:55:13;;;;;;;8.60;1.35;;;9.50;99.90;;;;;;21058373;28;20101;-59
2022/10/27 04:05:15;;;;;;;3.20;1.23;;;9.70;99.90;;;;;;21058341;28;20589;-59
2022/10/27 04:15:18;;;;;;;3.20;1.38;;;9.80;99.90;;;;;;21057426;28;20036;-61
2022/10/27 04:25:23;;;;;;;2.72;1.30;;;9.80;99.90;;;;;;21056491;28;20503;-67
2022/10/27 04:35:25;;;;;;;2.78;0.90;;;9.80;99.90;;;;;;21055418;28;20440;-68
2022/10/27 04:45:28;;;;;;;3.58;1.10;;;9.70;99.90;;;;;;21047254;28;20048;-59
2022/10/27 04:55:31;;;;;;;5.50;0.98;;;9.40;99.90;;;;;;21054000;28;20066;-68
2022/10/27 05:05:34;;;;;;;4.55;1.48;;;9.20;99.90;;;;;;21053740;28;20062;-68
2022/10/27 05:15:36;;;;;;;3.05;1.20;;;9.20;99.90;;;;;;21053075;28;20456;-66
2022/10/27 05:25:39;;;;;;;3.33;1.25;;;9.20;99.90;;;;;;21052799;28;20095;-66
2022/10/27 05:35:44;;;;;;;3.35;1.40;;;9.10;99.90;;;;;;21051789;28;20077;-60
2022/10/27 05:45:46;;;;;;;2.85;0.90;;;9.40;99.90;;;;;;21051510;28;20121;-66
2022/10/27 05:55:52;;;;;;;2.83;0.90;;;9.90;99.90;;;;;;21039060;28;20043;-60
2022/10/27 06:05:55;;;;;;;5.55;1.25;;;9.80;99.90;;;;;;21064011;28;20412;-60
2022/10/27 06:15:57;;;;;;;2.58;1.10;;;9.50;99.90;;;;;;21067160;28;20036;-66
2022/10/27 06:26:01;;;;;;;7.60;1.40;;;9.40;99.90;;;;;;21066659;28;20125;-66
2022/10/27 06:36:03;;;;;;;2.65;0.98;;;9.50;99.90;;;;;;21065470;28;20104;-60
2022/10/27 06:46:06;;;;;;;6.63;1.13;;;9.60;99.90;;;;;;21060931;28;20055;-66
2022/10/27 06:56:09;;;;;;;4.43;0.95;;;9.90;99.90;;;;;;21063221;28;20040;-60
2022/10/27 07:06:11;;;;;;;6.32;0.80;;;10.50;99.90;;;;;;21062671;28;20105;-61
2022/10/27 07:16:15;;;;;;;5.00;1.20;;;11.10;99.90;;;;;;21061858;28;20036;-63
2022/10/27 07:26:18;;;;;;;10.32;1.15;;;11.40;99.90;;;;;;21082142;28;20089;-66
2022/10/27 07:36:21;;;;;;;1.75;1.00;;;11.90;99.90;;;;;;21060163;28;20028;-62
2022/10/27 07:46:23;;;;;;;1.90;0.90;;;12.80;99.90;;;;;;21059059;28;20036;-64
2022/10/27 07:56:25;;;;;;;5.10;1.20;;;13.90;99.90;;;;;;21058281;28;20094;-64
2022/10/27 08:06:28;;;;;;;3.38;1.25;;;14.30;99.90;;;;;;21045448;28;20062;-63
2022/10/27 08:16:31;;;;;;;3.30;1.00;;;15.30;99.90;;;;;;21040829;28;20036;-64
2022/10/27 08:26:34;;;;;;;4.53;1.05;;;16.30;99.90;;;;;;21072810;28;20063;-64
2022/10/27 08:36:39;;;;;;;2.05;1.00;;;16.90;99.90;;;;;;21055576;28;20582;-63
2022/10/27 08:47:04;;;;;;;2.20;1.20;;;17.20;99.90;;;;;;21056409;28;20401;-64
2022/10/27 08:57:12;;;;;;;2.08;1.08;;;17.50;99.90;;;;;;21054351;28;20044;-62
2022/10/27 09:07:18;;;;;;;4.50;1.50;;;17.80;99.90;;;;;;21053777;28;20032;-62
2022/10/27 09:17:45;;;;;;;3.13;1.20;;;18.10;99.90;;;;;;21052750;28;20044;-62
2022/10/27 09:27:54;;;;;;;1.90;1.05;;;18.30;99.90;;;;;;21054132;28;20470;-62
2022/10/27 09:37:58;;;;;;;4.15;1.30;;;18.50;99.90;;;;;;21052122;28;20152;-64
2022/10/27 09:48:09;;;;;;;3.38;0.95;;;18.80;99.90;;;;;;21052267;28;20044;-64
2022/10/27 09:58:12;;;;;;;4.05;1.15;;;18.90;99.90;;;;;;21051524;28;20048;-64
2022/10/27 10:08:28;;;;;;;3.08;1.40;;;19.20;99.90;;;;;;21051190;28;20040;-65
2022/10/27 10:18:31;;;;;;;3.58;1.08;;;19.50;99.90;;;;;;21050974;28;20140;-64
2022/10/27 10:28:43;;;;;;;5.90;1.40;;;19.60;99.90;;;;;;21049892;28;20031;-64
2022/10/27 10:38:55;;;;;;;2.13;1.00;;;19.70;99.90;;;;;;21063672;28;20065;-65
2022/10/27 10:48:59;;;;;;;1.85;1.10;;;20.00;99.90;;;;;;21054191;28;20120;-62
2022/10/27 10:59:12;;;;;;;3.72;1.10;;;20.00;99.90;;;;;;21047991;28;20066;-65
2022/10/27 11:09:14;;;;;;;3.67;0.90;;;20.20;99.90;;;;;;21063169;28;20400;-66
2022/10/27 11:19:19;;;;;;;1.65;1.05;;;20.40;99.90;;;;;;21061990;28;20481;-65
2022/10/27 11:29:34;;;;;;;2.40;1.25;;;20.50;99.90;;;;;;21061845;28;20124;-62
2022/10/27 11:40:10;;;;;;;3.45;1.25;;;20.30;99.90;;;;;;21060493;28;20085;-62
2022/10/27 11:50:23;;;;;;;3.92;1.23;;;20.10;99.90;;;;;;21059177;28;20044;-62
2022/10/27 12:00:28;;;;;;;2.85;1.48;;;20.40;99.90;;;;;;21057924;28;20100;-62
2022/10/27 12:10:30;;;;;;;3.85;1.40;;;20.40;99.90;;;;;;21043187;28;20036;-65
2022/10/27 12:20:55;;;;;;;7.00;1.80;;;20.30;99.90;;;;;;21057300;28;20036;-65
2022/10/27 12:31:03;;;;;;;3.92;1.50;;;20.30;99.90;;;;;;21056440;28;20032;-66
2022/10/27 12:41:28;;;;;;;5.78;1.85;;;20.20;99.90;;;;;;21055216;28;20040;-62
2022/10/27 12:51:53;;;;;;;4.90;2.05;;;20.20;99.90;;;;;;20971642;28;20416;-63
2022/10/27 13:02:08;;;;;;;3.55;2.30;;;20.10;99.90;;;;;;20986912;28;20044;-65
2022/10/27 13:12:44;;;;;;;4.95;2.35;;;19.90;99.90;;;;;;20969785;28;20033;-62
2022/10/27 13:23:00;;;;;;;4.75;2.22;;;19.50;99.90;;;;;;20986184;28;20078;-63
2022/10/27 13:33:06;;;;;;;3.42;2.03;;;18.90;99.90;;;;;;20985971;28;20121;-63
2022/10/27 13:43:22;;;;;;;7.63;3.53;;;18.10;99.90;;;;;;20975159;28;20051;-64
2022/10/27 13:53:28;;;;;;;7.78;3.63;;;17.40;99.90;;;;;;21055846;28;20094;-61
2022/10/27 14:03:36;;;;;;;8.32;4.28;;;16.90;99.90;;;;;;21051177;28;20058;-64
2022/10/27 14:13:42;;;;;;;6.05;3.30;;;16.50;99.90;;;;;;21050639;28;20097;-64
2022/10/27 14:23:45;;;;;;;7.60;3.65;;;16.10;99.90;;;;;;21058150;28;20032;-63
2022/10/27 14:33:48;;;;;;;8.32;4.28;;;16.00;99.90;;;;;;21051048;28;20447;-60
2022/10/27 14:43:54;;;;;;;6.38;4.32;;;15.70;99.90;;;;;;21064933;28;20378;-60
2022/10/27 14:53:58;;;;;;;8.10;3.88;;;15.30;99.90;;;;;;21063334;28;20081;-64
2022/10/27 15:04:24;;;;;;;6.40;4.30;;;15.10;99.90;;;;;;21063125;28;20443;-63
2022/10/27 15:14:30;;;;;;;5.40;1.80;;;14.70;99.90;;;;;;21059132;28;20319;-63
2022/10/27 15:24:33;;;;;;;5.28;1.88;;;14.00;99.90;;;;;;21065935;28;20092;-60
2022/10/27 15:34:37;;;;;;;5.53;1.98;;;13.20;99.90;;;;;;21060839;28;20381;-59
2022/10/27 15:44:41;;;;;;;5.75;2.58;;;12.50;99.90;;;;;;21068199;28;20044;-62
2022/10/27 15:54:50;;;;;;;2.15;0.93;;;12.10;99.90;;;;;;21058797;28;20036;-59
2022/10/27 16:04:53;;;;;;;4.05;1.33;;;11.80;99.90;;;;;;21042197;28;20085;-63
2022/10/27 16:15:03;;;;;;;4.78;0.90;;;11.40;99.90;;;;;;21041814;28;20056;-63
2022/10/27 16:25:06;;;;;;;2.75;1.23;;;11.30;99.90;;;;;;21057703;28;20032;-60
2022/10/27 16:35:16;;;;;;;4.90;0.68;;;11.20;99.90;;;;;;21056966;28;20036;-63
2022/10/27 16:45:19;;;;;;;;;;;10.90;99.90;;;;;;21055288;28;20078;-63
2022/10/27 16:55:23;;;;;;;5.18;0.80;;;10.80;99.90;;;;;;21052854;28;19916;-53
2022/10/27 17:05:25;;;;;;;2.65;0.95;;;10.70;99.90;;;;;;21053421;28;20089;-62
2022/10/27 17:15:28;;;;;;;2.22;0.88;;;10.60;99.90;;;;;;21052844;28;20044;-53
2022/10/27 17:25:32;;;;;;;2.20;0.73;;;10.40;99.90;;;;;;21052321;28;20031;-62
2022/10/27 17:35:34;;;;;;;4.32;0.98;;;10.30;99.90;;;;;;21051871;28;20452;-62
2022/10/27 17:45:37;;;;;;;2.67;1.00;;;10.00;99.90;;;;;;21035528;28;20064;-62
2022/10/27 17:55:40;;;;;;;3.92;1.27;;;10.20;99.90;;;;;;21054226;28;20028;-50
2022/10/27 18:05:42;;;;;;;8.05;1.02;;;10.00;99.90;;;;;;21067537;28;20078;-55
2022/10/27 18:15:45;;;;;;;2.38;1.05;;;10.00;99.90;;;;;;21067111;28;20058;-63
2022/10/27 18:25:47;;;;;;;3.40;0.80;;;9.90;99.90;;;;;;21064825;28;20085;-54
2022/10/27 18:35:50;;;;;;;5.35;0.95;;;9.90;99.90;;;;;;21047432;28;20043;-63
2022/10/27 18:45:58;;;;;;;4.97;1.10;;;9.70;99.90;;;;;;21064606;28;20105;-62
2022/10/27 18:56:03;;;;;;;2.38;0.80;;;10.00;99.90;;;;;;21063886;28;20393;-53
2022/10/27 19:06:08;;;;;;;6.88;0.90;;;10.00;99.90;;;;;;21063814;28;20040;-57
2022/10/27 19:16:16;;;;;;;3.20;0.90;;;9.90;99.90;;;;;;21081382;28;20104;-59
2022/10/27 19:26:23;;;;;;;8.23;1.20;;;10.00;99.90;;;;;;21064598;28;20035;-59
2022/10/27 19:36:29;;;;;;;3.10;0.90;;;9.90;99.90;;;;;;21074309;28;20082;-53
2022/10/27 19:46:32;;;;;;;2.95;0.88;;;9.80;99.90;;;;;;21067994;28;20056;-58
2022/10/27 19:56:35;;;;;;;6.60;0.85;;;10.00;99.90;;;;;;21051813;28;20044;-55
2022/10/27 20:06:45;;;;;;;7.10;1.20;;;10.00;99.90;;;;;;21057626;28;20439;-59
2022/10/27 20:16:48;;;;;;;5.60;0.90;;;9.90;99.90;;;;;;21077555;28;20032;-55
2022/10/27 20:26:51;;;;;;;5.50;1.20;;;10.00;99.90;;;;;;21054795;28;20032;-58
2022/10/27 20:36:54;;;;;;;6.93;1.17;;;9.80;99.90;;;;;;21059264;28;20073;-56
2022/10/27 20:46:57;;;;;;;1.35;0.70;;;9.90;99.90;;;;;;21055205;28;20044;-58
2022/10/27 20:57:00;;;;;;;2.53;0.60;;;9.90;99.90;;;;;;21052924;28;20040;-63
2022/10/27 21:07:02;;;;;;;3.72;0.80;;;10.30;99.90;;;;;;21047573;28;20497;-60
2022/10/27 21:17:05;;;;;;;2.13;0.63;;;10.20;99.90;;;;;;21056148;28;20407;-61
2022/10/27 21:27:08;;;;;;;6.95;1.20;;;10.10;99.90;;;;;;21055905;28;20066;-50
2022/10/27 21:37:11;;;;;;;9.13;1.52;;;9.90;99.90;;;;;;21049280;28;20100;-53
2022/10/27 21:47:16;;;;;;;5.60;1.00;;;9.90;99.90;;;;;;21050459;28;20117;-51
2022/10/27 21:57:20;;;;;;;6.40;0.70;;;9.80;99.90;;;;;;21073136;28;20036;-50
2022/10/27 22:07:23;;;;;;;4.25;1.00;;;9.90;99.90;;;;;;21051080;28;20036;-54
2022/10/27 22:17:25;;;;;;;2.33;0.75;;;9.70;99.90;;;;;;21050763;28;20061;-53
2022/10/27 22:27:27;;;;;;;1.83;0.85;;;9.60;99.90;;;;;;21038374;28;20443;-69
2022/10/27 22:37:30;;;;;;;2.22;0.90;;;9.60;99.90;;;;;;21050289;28;20040;-53
2022/10/27 22:47:32;;;;;;;5.28;1.15;;;9.60;99.90;;;;;;21061492;28;20048;-68
2022/10/27 22:57:35;;;;;;;1.48;0.60;;;9.80;99.90;;;;;;21060089;28;20073;-52
2022/10/27 23:07:37;;;;;;;2.97;0.90;;;9.70;99.90;;;;;;21063725;28;20028;-68
2022/10/27 23:17:40;;;;;;;3.05;0.70;;;9.70;99.90;;;;;;21062645;28;20085;-52
2022/10/27 23:27:42;;;;;;;3.80;1.00;;;9.60;99.90;;;;;;21061976;28;20477;-55
2022/10/27 23:37:45;;;;;;;3.33;1.10;;;9.70;99.90;;;;;;21060980;28;20051;-68
2022/10/27 23:47:49;;;;;;;7.70;1.33;;;9.70;99.90;;;;;;21060337;28;20040;-52
2022/10/27 23:57:52;;;;;;;3.33;0.60;;;9.60;99.90;;;;;;21059409;28;20093;-53
